Branchville, South Carolina
Current Conditions -  °F | °C
As of 4:53 AM on Thursday 23 Oct 2014 (Local Time) from KOGB Reporting Station
Clear Clear  
Wind Chill: 43°   Ceiling: Unl
Heat Index: 45°   Visibility: 10mi
Dew Point: 41°   Wind: 5mph
Humidity: 86%   Direction: 340°NNW
Pressure: 30.07"   Gusts: NA
Location:  33.25°N, 80.82°W
Report Text: KOGB 230853Z AUTO 34004KT 10SM CLR 07/05 A3007 RMK AO2 SLP182 T00720050 55008
Loading
Personal Weather Stations






























Interactive Weather Map
Tropical Storm Tracking
New forecast layout! Learn more

10-Day Weather Forecast

Advertisements
Track Severe Weather on mobile